sensor_id;sensor_type;location;lat;lon;timestamp;temperature;humidity
38500;DHT22;24269;51.894;4.622;2022-07-21T00:01:35;20.50;99.90
38500;DHT22;24269;51.894;4.622;2022-07-21T00:04:01;20.50;99.90
38500;DHT22;24269;51.894;4.622;2022-07-21T00:06:26;20.50;99.90
38500;DHT22;24269;51.894;4.622;2022-07-21T00:08:52;20.40;99.90
38500;DHT22;24269;51.894;4.622;2022-07-21T00:11:18;20.40;99.90
38500;DHT22;24269;51.894;4.622;2022-07-21T00:13:44;20.30;99.90
38500;DHT22;24269;51.894;4.622;2022-07-21T00:16:10;20.30;99.90
38500;DHT22;24269;51.894;4.622;2022-07-21T00:18:36;20.30;99.90
38500;DHT22;24269;51.894;4.622;2022-07-21T00:21:02;20.30;99.90
38500;DHT22;24269;51.894;4.622;2022-07-21T00:23:28;20.30;99.90
38500;DHT22;24269;51.894;4.622;2022-07-21T00:25:54;20.30;99.90
38500;DHT22;24269;51.894;4.622;2022-07-21T00:28:20;20.30;99.90
38500;DHT22;24269;51.894;4.622;2022-07-21T00:30:46;20.20;99.90
38500;DHT22;24269;51.894;4.622;2022-07-21T00:33:11;20.20;99.90
38500;DHT22;24269;51.894;4.622;2022-07-21T00:35:37;20.30;99.90
38500;DHT22;24269;51.894;4.622;2022-07-21T00:38:03;20.30;99.90
38500;DHT22;24269;51.894;4.622;2022-07-21T00:40:29;20.30;99.90
38500;DHT22;24269;51.894;4.622;2022-07-21T00:42:56;20.30;99.90
38500;DHT22;24269;51.894;4.622;2022-07-21T00:45:21;20.30;99.90
38500;DHT22;24269;51.894;4.622;2022-07-21T00:47:47;20.30;99.90
38500;DHT22;24269;51.894;4.622;2022-07-21T00:50:16;20.20;99.90
38500;DHT22;24269;51.894;4.622;2022-07-21T00:52:42;20.20;99.90
38500;DHT22;24269;51.894;4.622;2022-07-21T00:55:11;20.20;99.90
38500;DHT22;24269;51.894;4.622;2022-07-21T00:57:37;20.20;99.90
38500;DHT22;24269;51.894;4.622;2022-07-21T01:00:08;20.20;99.90
38500;DHT22;24269;51.894;4.622;2022-07-21T01:02:34;20.20;99.90
38500;DHT22;24269;51.894;4.622;2022-07-21T01:05:07;20.20;99.90
38500;DHT22;24269;51.894;4.622;2022-07-21T01:07:39;20.20;99.90
38500;DHT22;24269;51.894;4.622;2022-07-21T01:10:05;20.20;99.90
38500;DHT22;24269;51.894;4.622;2022-07-21T01:12:30;20.20;99.90
38500;DHT22;24269;51.894;4.622;2022-07-21T01:14:56;20.20;99.90
38500;DHT22;24269;51.894;4.622;2022-07-21T01:17:22;20.20;99.90
38500;DHT22;24269;51.894;4.622;2022-07-21T01:19:48;20.20;99.90
38500;DHT22;24269;51.894;4.622;2022-07-21T01:22:14;20.20;99.90
38500;DHT22;24269;51.894;4.622;2022-07-21T01:24:40;20.10;99.90
38500;DHT22;24269;51.894;4.622;2022-07-21T01:27:05;20.10;99.90
38500;DHT22;24269;51.894;4.622;2022-07-21T01:29:31;20.10;99.90
38500;DHT22;24269;51.894;4.622;2022-07-21T01:31:56;20.10;99.90
38500;DHT22;24269;51.894;4.622;2022-07-21T01:34:22;20.20;99.90
38500;DHT22;24269;51.894;4.622;2022-07-21T01:36:48;20.20;99.90
38500;DHT22;24269;51.894;4.622;2022-07-21T01:39:14;20.20;99.90
38500;DHT22;24269;51.894;4.622;2022-07-21T01:41:59;20.20;99.90
38500;DHT22;24269;51.894;4.622;2022-07-21T01:44:25;20.30;99.90
38500;DHT22;24269;51.894;4.622;2022-07-21T01:46:51;20.20;99.90
38500;DHT22;24269;51.894;4.622;2022-07-21T01:49:19;20.20;99.90
38500;DHT22;24269;51.894;4.622;2022-07-21T01:51:45;20.20;99.90
38500;DHT22;24269;51.894;4.622;2022-07-21T01:54:11;20.10;99.90
38500;DHT22;24269;51.894;4.622;2022-07-21T01:56:38;20.10;99.90
38500;DHT22;24269;51.894;4.622;2022-07-21T01:59:05;20.10;99.90
38500;DHT22;24269;51.894;4.622;2022-07-21T02:01:31;20.00;99.90
38500;DHT22;24269;51.894;4.622;2022-07-21T02:04:01;20.00;99.90
38500;DHT22;24269;51.894;4.622;2022-07-21T02:06:28;20.00;99.90
38500;DHT22;24269;51.894;4.622;2022-07-21T02:08:54;20.00;99.90
38500;DHT22;24269;51.894;4.622;2022-07-21T02:11:20;20.00;99.90
38500;DHT22;24269;51.894;4.622;2022-07-21T02:13:47;19.90;99.90
38500;DHT22;24269;51.894;4.622;2022-07-21T02:16:13;20.00;99.90
38500;DHT22;24269;51.894;4.622;2022-07-21T02:18:39;20.00;99.90
38500;DHT22;24269;51.894;4.622;2022-07-21T02:21:05;20.00;99.90
38500;DHT22;24269;51.894;4.622;2022-07-21T02:23:31;20.10;99.90
38500;DHT22;24269;51.894;4.622;2022-07-21T02:25:57;20.10;99.90
38500;DHT22;24269;51.894;4.622;2022-07-21T02:28:24;20.00;99.90
38500;DHT22;24269;51.894;4.622;2022-07-21T02:30:50;19.90;99.90
38500;DHT22;24269;51.894;4.622;2022-07-21T02:33:16;19.90;99.90
38500;DHT22;24269;51.894;4.622;2022-07-21T02:35:42;19.90;99.90
38500;DHT22;24269;51.894;4.622;2022-07-21T02:38:08;19.80;99.90
38500;DHT22;24269;51.894;4.622;2022-07-21T02:40:34;19.90;99.90
38500;DHT22;24269;51.894;4.622;2022-07-21T02:43:00;19.80;99.90
38500;DHT22;24269;51.894;4.622;2022-07-21T02:45:26;19.90;99.90
38500;DHT22;24269;51.894;4.622;2022-07-21T02:47:53;19.80;99.90
38500;DHT22;24269;51.894;4.622;2022-07-21T02:50:19;19.80;99.90
38500;DHT22;24269;51.894;4.622;2022-07-21T02:52:45;19.70;99.90
38500;DHT22;24269;51.894;4.622;2022-07-21T02:55:11;19.70;99.90
38500;DHT22;24269;51.894;4.622;2022-07-21T02:57:37;19.70;99.90
38500;DHT22;24269;51.894;4.622;2022-07-21T03:00:05;19.70;99.90
38500;DHT22;24269;51.894;4.622;2022-07-21T03:02:31;19.80;99.90
38500;DHT22;24269;51.894;4.622;2022-07-21T03:04:57;19.70;99.90
38500;DHT22;24269;51.894;4.622;2022-07-21T03:07:23;19.80;99.90
38500;DHT22;24269;51.894;4.622;2022-07-21T03:09:48;19.80;99.90
38500;DHT22;24269;51.894;4.622;2022-07-21T03:12:14;19.70;99.90
38500;DHT22;24269;51.894;4.622;2022-07-21T03:14:39;19.70;99.90
38500;DHT22;24269;51.894;4.622;2022-07-21T03:17:05;19.70;99.90
38500;DHT22;24269;51.894;4.622;2022-07-21T03:19:31;19.70;99.90
38500;DHT22;24269;51.894;4.622;2022-07-21T03:21:56;19.60;99.90
38500;DHT22;24269;51.894;4.622;2022-07-21T03:24:22;19.60;99.90
38500;DHT22;24269;51.894;4.622;2022-07-21T03:26:48;19.50;99.90
38500;DHT22;24269;51.894;4.622;2022-07-21T03:29:14;19.50;99.90
38500;DHT22;24269;51.894;4.622;2022-07-21T03:31:39;19.50;99.90
38500;DHT22;24269;51.894;4.622;2022-07-21T03:34:05;19.50;99.90
38500;DHT22;24269;51.894;4.622;2022-07-21T03:36:31;19.60;99.90
38500;DHT22;24269;51.894;4.622;2022-07-21T03:38:56;19.60;99.90
38500;DHT22;24269;51.894;4.622;2022-07-21T03:41:22;19.70;99.90
38500;DHT22;24269;51.894;4.622;2022-07-21T03:43:47;19.60;99.90
38500;DHT22;24269;51.894;4.622;2022-07-21T03:46:13;19.60;99.90
38500;DHT22;24269;51.894;4.622;2022-07-21T03:48:39;19.60;99.90
38500;DHT22;24269;51.894;4.622;2022-07-21T03:51:05;19.60;99.90
38500;DHT22;24269;51.894;4.622;2022-07-21T03:53:31;19.60;99.90
38500;DHT22;24269;51.894;4.622;2022-07-21T03:55:57;19.60;99.90
38500;DHT22;24269;51.894;4.622;2022-07-21T03:58:22;19.60;99.90
38500;DHT22;24269;51.894;4.622;2022-07-21T04:00:48;19.60;99.90
38500;DHT22;24269;51.894;4.622;2022-07-21T04:03:14;19.70;99.90
38500;DHT22;24269;51.894;4.622;2022-07-21T04:05:43;19.70;99.90
38500;DHT22;24269;51.894;4.622;2022-07-21T04:08:10;19.80;99.90
38500;DHT22;24269;51.894;4.622;2022-07-21T04:10:38;19.80;99.90
38500;DHT22;24269;51.894;4.622;2022-07-21T04:13:07;19.80;99.90
38500;DHT22;24269;51.894;4.622;2022-07-21T04:15:33;19.90;99.90
38500;DHT22;24269;51.894;4.622;2022-07-21T04:17:59;19.90;99.90
38500;DHT22;24269;51.894;4.622;2022-07-21T04:20:25;19.80;99.90
38500;DHT22;24269;51.894;4.622;2022-07-21T04:22:51;19.80;99.90
38500;DHT22;24269;51.894;4.622;2022-07-21T04:25:18;19.80;99.90
38500;DHT22;24269;51.894;4.622;2022-07-21T04:27:46;19.80;99.90
38500;DHT22;24269;51.894;4.622;2022-07-21T04:30:16;19.80;99.90
38500;DHT22;24269;51.894;4.622;2022-07-21T04:32:42;19.70;99.90
38500;DHT22;24269;51.894;4.622;2022-07-21T04:35:09;19.70;99.90
38500;DHT22;24269;51.894;4.622;2022-07-21T04:37:36;19.70;99.90
38500;DHT22;24269;51.894;4.622;2022-07-21T04:40:03;19.70;99.90
38500;DHT22;24269;51.894;4.622;2022-07-21T04:42:29;19.70;99.90
38500;DHT22;24269;51.894;4.622;2022-07-21T04:44:55;19.70;99.90
38500;DHT22;24269;51.894;4.622;2022-07-21T04:47:21;19.70;99.90
38500;DHT22;24269;51.894;4.622;2022-07-21T04:49:46;19.70;99.90
38500;DHT22;24269;51.894;4.622;2022-07-21T04:52:12;19.80;99.90
38500;DHT22;24269;51.894;4.622;2022-07-21T04:54:37;19.80;99.90
38500;DHT22;24269;51.894;4.622;2022-07-21T04:57:03;19.80;99.90
38500;DHT22;24269;51.894;4.622;2022-07-21T04:59:31;19.70;99.90
38500;DHT22;24269;51.894;4.622;2022-07-21T05:01:58;19.70;99.90
38500;DHT22;24269;51.894;4.622;2022-07-21T05:04:23;19.80;99.90
38500;DHT22;24269;51.894;4.622;2022-07-21T05:06:49;19.80;99.90
38500;DHT22;24269;51.894;4.622;2022-07-21T05:09:15;19.80;99.90
38500;DHT22;24269;51.894;4.622;2022-07-21T05:11:40;19.80;99.90
38500;DHT22;24269;51.894;4.622;2022-07-21T05:14:06;19.70;99.90
38500;DHT22;24269;51.894;4.622;2022-07-21T05:16:32;19.70;99.90
38500;DHT22;24269;51.894;4.622;2022-07-21T05:18:57;19.70;99.90
38500;DHT22;24269;51.894;4.622;2022-07-21T05:21:23;19.70;99.90
38500;DHT22;24269;51.894;4.622;2022-07-21T05:23:49;19.70;99.90
38500;DHT22;24269;51.894;4.622;2022-07-21T05:26:14;19.70;99.90
38500;DHT22;24269;51.894;4.622;2022-07-21T05:28:40;19.70;99.90
38500;DHT22;24269;51.894;4.622;2022-07-21T05:31:07;19.70;99.90
38500;DHT22;24269;51.894;4.622;2022-07-21T05:33:33;19.70;99.90
38500;DHT22;24269;51.894;4.622;2022-07-21T05:35:59;19.70;99.90
38500;DHT22;24269;51.894;4.622;2022-07-21T05:38:24;19.70;99.90
38500;DHT22;24269;51.894;4.622;2022-07-21T05:40:50;19.70;99.90
38500;DHT22;24269;51.894;4.622;2022-07-21T05:43:16;19.70;99.90
38500;DHT22;24269;51.894;4.622;2022-07-21T05:45:41;19.70;99.90
38500;DHT22;24269;51.894;4.622;2022-07-21T05:48:07;19.70;99.90
38500;DHT22;24269;51.894;4.622;2022-07-21T05:50:33;19.70;99.90
38500;DHT22;24269;51.894;4.622;2022-07-21T05:52:58;19.70;99.90
38500;DHT22;24269;51.894;4.622;2022-07-21T05:55:24;19.70;99.90
38500;DHT22;24269;51.894;4.622;2022-07-21T05:57:50;19.70;99.90
38500;DHT22;24269;51.894;4.622;2022-07-21T06:00:16;19.70;99.90
38500;DHT22;24269;51.894;4.622;2022-07-21T06:02:43;19.70;99.90
38500;DHT22;24269;51.894;4.622;2022-07-21T06:05:09;19.70;99.90
38500;DHT22;24269;51.894;4.622;2022-07-21T06:07:36;19.80;99.90
38500;DHT22;24269;51.894;4.622;2022-07-21T06:10:03;19.80;99.90
38500;DHT22;24269;51.894;4.622;2022-07-21T06:12:28;19.80;99.90
38500;DHT22;24269;51.894;4.622;2022-07-21T06:14:54;19.80;99.90
38500;DHT22;24269;51.894;4.622;2022-07-21T06:17:21;19.80;99.90
38500;DHT22;24269;51.894;4.622;2022-07-21T06:19:47;19.80;99.90
38500;DHT22;24269;51.894;4.622;2022-07-21T06:22:12;19.80;99.90
38500;DHT22;24269;51.894;4.622;2022-07-21T06:24:38;19.90;99.90
38500;DHT22;24269;51.894;4.622;2022-07-21T06:27:04;19.90;99.90
38500;DHT22;24269;51.894;4.622;2022-07-21T06:29:30;19.90;99.90
38500;DHT22;24269;51.894;4.622;2022-07-21T06:31:55;19.90;99.90
38500;DHT22;24269;51.894;4.622;2022-07-21T06:34:21;19.90;99.90
38500;DHT22;24269;51.894;4.622;2022-07-21T06:36:46;19.90;99.90
38500;DHT22;24269;51.894;4.622;2022-07-21T06:39:12;19.90;99.90
38500;DHT22;24269;51.894;4.622;2022-07-21T06:41:39;19.90;99.90
38500;DHT22;24269;51.894;4.622;2022-07-21T06:44:05;19.90;99.90
38500;DHT22;24269;51.894;4.622;2022-07-21T06:46:32;19.90;99.90
38500;DHT22;24269;51.894;4.622;2022-07-21T06:48:58;19.90;99.90
38500;DHT22;24269;51.894;4.622;2022-07-21T06:51:24;19.90;99.90
38500;DHT22;24269;51.894;4.622;2022-07-21T06:53:49;19.90;99.90
38500;DHT22;24269;51.894;4.622;2022-07-21T06:56:17;19.90;99.90
38500;DHT22;24269;51.894;4.622;2022-07-21T06:58:42;19.90;99.90
38500;DHT22;24269;51.894;4.622;2022-07-21T07:01:08;19.90;99.90
38500;DHT22;24269;51.894;4.622;2022-07-21T07:03:34;19.90;99.90
38500;DHT22;24269;51.894;4.622;2022-07-21T07:05:59;19.80;99.90
38500;DHT22;24269;51.894;4.622;2022-07-21T07:08:25;19.80;99.90
38500;DHT22;24269;51.894;4.622;2022-07-21T07:10:51;19.80;99.90
38500;DHT22;24269;51.894;4.622;2022-07-21T07:13:16;19.80;99.90
38500;DHT22;24269;51.894;4.622;2022-07-21T07:15:44;19.80;99.90
38500;DHT22;24269;51.894;4.622;2022-07-21T07:18:09;19.80;99.90
38500;DHT22;24269;51.894;4.622;2022-07-21T07:20:35;19.80;99.90
38500;DHT22;24269;51.894;4.622;2022-07-21T07:23:01;19.80;99.90
38500;DHT22;24269;51.894;4.622;2022-07-21T07:25:27;19.70;99.90
38500;DHT22;24269;51.894;4.622;2022-07-21T07:27:52;19.70;99.90
38500;DHT22;24269;51.894;4.622;2022-07-21T07:30:19;19.80;99.90
38500;DHT22;24269;51.894;4.622;2022-07-21T07:32:45;19.70;99.90
38500;DHT22;24269;51.894;4.622;2022-07-21T07:35:13;19.70;99.90
38500;DHT22;24269;51.894;4.622;2022-07-21T07:37:40;19.70;99.90
38500;DHT22;24269;51.894;4.622;2022-07-21T07:40:10;19.70;99.90
38500;DHT22;24269;51.894;4.622;2022-07-21T07:42:36;19.70;99.90
38500;DHT22;24269;51.894;4.622;2022-07-21T07:45:04;19.70;99.90
38500;DHT22;24269;51.894;4.622;2022-07-21T07:47:30;19.60;99.90
38500;DHT22;24269;51.894;4.622;2022-07-21T07:49:56;19.60;99.90
38500;DHT22;24269;51.894;4.622;2022-07-21T07:52:22;19.50;99.90
38500;DHT22;24269;51.894;4.622;2022-07-21T07:54:48;19.50;99.90
38500;DHT22;24269;51.894;4.622;2022-07-21T07:57:13;19.50;99.90
38500;DHT22;24269;51.894;4.622;2022-07-21T07:59:39;19.50;99.90
38500;DHT22;24269;51.894;4.622;2022-07-21T08:02:05;19.40;99.90
38500;DHT22;24269;51.894;4.622;2022-07-21T08:04:30;19.50;99.90
38500;DHT22;24269;51.894;4.622;2022-07-21T08:06:56;19.50;99.90
38500;DHT22;24269;51.894;4.622;2022-07-21T08:09:22;19.50;99.90
38500;DHT22;24269;51.894;4.622;2022-07-21T08:11:47;19.50;99.90
38500;DHT22;24269;51.894;4.622;2022-07-21T08:14:14;19.50;99.90
38500;DHT22;24269;51.894;4.622;2022-07-21T08:16:40;19.50;99.90
38500;DHT22;24269;51.894;4.622;2022-07-21T08:19:06;19.50;99.90
38500;DHT22;24269;51.894;4.622;2022-07-21T08:21:32;19.60;99.90
38500;DHT22;24269;51.894;4.622;2022-07-21T08:23:59;19.60;99.90
38500;DHT22;24269;51.894;4.622;2022-07-21T08:26:25;19.60;99.90
38500;DHT22;24269;51.894;4.622;2022-07-21T08:28:55;19.70;99.90
38500;DHT22;24269;51.894;4.622;2022-07-21T08:31:22;19.70;99.90
38500;DHT22;24269;51.894;4.622;2022-07-21T08:33:49;19.80;99.90
38500;DHT22;24269;51.894;4.622;2022-07-21T08:36:15;19.80;99.90
38500;DHT22;24269;51.894;4.622;2022-07-21T08:38:40;19.80;99.90
38500;DHT22;24269;51.894;4.622;2022-07-21T08:41:06;19.80;99.90
38500;DHT22;24269;51.894;4.622;2022-07-21T08:43:34;19.80;99.90
38500;DHT22;24269;51.894;4.622;2022-07-21T08:46:00;19.70;99.90
38500;DHT22;24269;51.894;4.622;2022-07-21T08:48:27;19.70;99.90
38500;DHT22;24269;51.894;4.622;2022-07-21T08:50:55;19.70;99.90
38500;DHT22;24269;51.894;4.622;2022-07-21T08:53:21;19.60;99.90
38500;DHT22;24269;51.894;4.622;2022-07-21T08:55:47;19.60;99.90
38500;DHT22;24269;51.894;4.622;2022-07-21T08:58:13;19.50;99.90
38500;DHT22;24269;51.894;4.622;2022-07-21T09:00:42;19.50;99.90
38500;DHT22;24269;51.894;4.622;2022-07-21T09:05:36;19.40;99.90
38500;DHT22;24269;51.894;4.622;2022-07-21T09:08:02;19.40;99.90
38500;DHT22;24269;51.894;4.622;2022-07-21T09:10:29;19.40;99.90
38500;DHT22;24269;51.894;4.622;2022-07-21T09:12:59;19.30;99.90
38500;DHT22;24269;51.894;4.622;2022-07-21T09:15:27;19.30;99.90
38500;DHT22;24269;51.894;4.622;2022-07-21T09:18:14;19.20;99.90
38500;DHT22;24269;51.894;4.622;2022-07-21T09:20:49;19.20;99.90
38500;DHT22;24269;51.894;4.622;2022-07-21T09:23:17;19.10;99.90
38500;DHT22;24269;51.894;4.622;2022-07-21T09:25:46;19.10;99.90
38500;DHT22;24269;51.894;4.622;2022-07-21T09:28:17;19.10;99.90
38500;DHT22;24269;51.894;4.622;2022-07-21T09:33:43;19.10;99.90
38500;DHT22;24269;51.894;4.622;2022-07-21T09:36:10;19.10;99.90
38500;DHT22;24269;51.894;4.622;2022-07-21T09:38:42;19.10;99.90
38500;DHT22;24269;51.894;4.622;2022-07-21T09:41:12;19.10;99.90
38500;DHT22;24269;51.894;4.622;2022-07-21T09:43:49;19.10;99.90
38500;DHT22;24269;51.894;4.622;2022-07-21T09:46:22;19.20;99.90
38500;DHT22;24269;51.894;4.622;2022-07-21T09:48:51;19.30;99.90
38500;DHT22;24269;51.894;4.622;2022-07-21T09:51:33;19.50;99.90
38500;DHT22;24269;51.894;4.622;2022-07-21T09:54:01;19.60;99.90
38500;DHT22;24269;51.894;4.622;2022-07-21T09:56:32;19.60;99.90
38500;DHT22;24269;51.894;4.622;2022-07-21T09:58:59;19.60;99.90
38500;DHT22;24269;51.894;4.622;2022-07-21T10:03:35;19.50;99.90
38500;DHT22;24269;51.894;4.622;2022-07-21T10:06:03;19.40;99.90
38500;DHT22;24269;51.894;4.622;2022-07-21T10:08:29;19.30;99.90
38500;DHT22;24269;51.894;4.622;2022-07-21T10:10:55;19.30;99.90
38500;DHT22;24269;51.894;4.622;2022-07-21T10:13:20;19.30;99.90
38500;DHT22;24269;51.894;4.622;2022-07-21T10:15:46;19.20;99.90
38500;DHT22;24269;51.894;4.622;2022-07-21T10:18:14;19.20;99.90
38500;DHT22;24269;51.894;4.622;2022-07-21T10:20:41;19.20;99.90
38500;DHT22;24269;51.894;4.622;2022-07-21T10:23:18;19.10;99.90
38500;DHT22;24269;51.894;4.622;2022-07-21T10:25:48;19.10;99.90
38500;DHT22;24269;51.894;4.622;2022-07-21T10:30:46;19.10;99.90
38500;DHT22;24269;51.894;4.622;2022-07-21T10:33:16;19.10;99.90
38500;DHT22;24269;51.894;4.622;2022-07-21T10:35:44;19.00;99.90
38500;DHT22;24269;51.894;4.622;2022-07-21T10:38:29;19.00;99.90
38500;DHT22;24269;51.894;4.622;2022-07-21T10:40:56;19.00;99.90
38500;DHT22;24269;51.894;4.622;2022-07-21T10:45:51;19.10;99.90
38500;DHT22;24269;51.894;4.622;2022-07-21T10:51:06;19.50;99.90
38500;DHT22;24269;51.894;4.622;2022-07-21T10:53:32;19.60;99.90
38500;DHT22;24269;51.894;4.622;2022-07-21T10:55:58;19.70;99.90
38500;DHT22;24269;51.894;4.622;2022-07-21T11:00:56;19.80;99.90
38500;DHT22;24269;51.894;4.622;2022-07-21T11:03:27;19.80;99.90
38500;DHT22;24269;51.894;4.622;2022-07-21T11:08:44;19.80;99.90
38500;DHT22;24269;51.894;4.622;2022-07-21T11:22:00;19.70;99.90
38500;DHT22;24269;51.894;4.622;2022-07-21T11:24:27;19.70;99.90
38500;DHT22;24269;51.894;4.622;2022-07-21T11:27:03;19.60;99.90
38500;DHT22;24269;51.894;4.622;2022-07-21T11:29:30;19.60;99.90
38500;DHT22;24269;51.894;4.622;2022-07-21T11:31:57;19.70;99.90
38500;DHT22;24269;51.894;4.622;2022-07-21T11:34:24;19.70;99.90
38500;DHT22;24269;51.894;4.622;2022-07-21T11:37:01;19.80;99.90
38500;DHT22;24269;51.894;4.622;2022-07-21T11:39:27;19.90;99.90
38500;DHT22;24269;51.894;4.622;2022-07-21T11:41:52;19.90;99.90
38500;DHT22;24269;51.894;4.622;2022-07-21T11:44:25;19.80;99.90
38500;DHT22;24269;51.894;4.622;2022-07-21T11:46:56;19.80;99.90
38500;DHT22;24269;51.894;4.622;2022-07-21T11:49:22;19.70;99.90
38500;DHT22;24269;51.894;4.622;2022-07-21T11:51:49;19.70;99.90
38500;DHT22;24269;51.894;4.622;2022-07-21T11:54:42;19.60;99.90
38500;DHT22;24269;51.894;4.622;2022-07-21T11:57:08;19.60;99.90
38500;DHT22;24269;51.894;4.622;2022-07-21T11:59:36;19.50;99.90
38500;DHT22;24269;51.894;4.622;2022-07-21T12:02:08;19.40;99.90
38500;DHT22;24269;51.894;4.622;2022-07-21T12:04:41;19.40;99.90
38500;DHT22;24269;51.894;4.622;2022-07-21T12:07:12;19.50;99.90
38500;DHT22;24269;51.894;4.622;2022-07-21T12:09:38;19.50;99.90
38500;DHT22;24269;51.894;4.622;2022-07-21T12:12:05;19.40;99.90
38500;DHT22;24269;51.894;4.622;2022-07-21T12:14:50;19.30;99.90
38500;DHT22;24269;51.894;4.622;2022-07-21T12:17:19;19.30;99.90
38500;DHT22;24269;51.894;4.622;2022-07-21T12:19:56;19.40;99.90
38500;DHT22;24269;51.894;4.622;2022-07-21T12:22:40;19.40;99.90
38500;DHT22;24269;51.894;4.622;2022-07-21T12:25:08;19.40;99.90
38500;DHT22;24269;51.894;4.622;2022-07-21T12:27:35;19.40;99.90
38500;DHT22;24269;51.894;4.622;2022-07-21T12:30:04;19.40;99.90
38500;DHT22;24269;51.894;4.622;2022-07-21T12:32:45;19.50;99.90
38500;DHT22;24269;51.894;4.622;2022-07-21T12:35:23;19.40;99.90
38500;DHT22;24269;51.894;4.622;2022-07-21T12:38:01;19.50;99.90
38500;DHT22;24269;51.894;4.622;2022-07-21T12:40:28;19.50;99.90
38500;DHT22;24269;51.894;4.622;2022-07-21T12:43:13;19.60;99.90
38500;DHT22;24269;51.894;4.622;2022-07-21T12:45:49;19.70;99.90
38500;DHT22;24269;51.894;4.622;2022-07-21T12:48:18;19.80;99.90
38500;DHT22;24269;51.894;4.622;2022-07-21T12:50:58;19.80;99.90
38500;DHT22;24269;51.894;4.622;2022-07-21T12:53:23;19.70;99.90
38500;DHT22;24269;51.894;4.622;2022-07-21T12:55:49;19.80;99.90
38500;DHT22;24269;51.894;4.622;2022-07-21T12:58:15;19.80;99.90
38500;DHT22;24269;51.894;4.622;2022-07-21T13:00:40;19.80;99.90
38500;DHT22;24269;51.894;4.622;2022-07-21T13:03:06;19.80;99.90
38500;DHT22;24269;51.894;4.622;2022-07-21T13:05:32;19.90;99.90
38500;DHT22;24269;51.894;4.622;2022-07-21T13:07:57;19.70;99.90
38500;DHT22;24269;51.894;4.622;2022-07-21T13:10:23;19.80;99.90
38500;DHT22;24269;51.894;4.622;2022-07-21T13:12:49;19.70;99.90
38500;DHT22;24269;51.894;4.622;2022-07-21T13:15:15;19.60;99.90
38500;DHT22;24269;51.894;4.622;2022-07-21T13:17:41;19.60;99.90
38500;DHT22;24269;51.894;4.622;2022-07-21T13:20:08;19.70;99.90
38500;DHT22;24269;51.894;4.622;2022-07-21T13:22:34;19.70;99.90
38500;DHT22;24269;51.894;4.622;2022-07-21T13:25:00;19.60;99.90
38500;DHT22;24269;51.894;4.622;2022-07-21T13:27:26;19.60;99.90
38500;DHT22;24269;51.894;4.622;2022-07-21T13:29:51;19.60;99.90
38500;DHT22;24269;51.894;4.622;2022-07-21T13:32:17;19.60;99.90
38500;DHT22;24269;51.894;4.622;2022-07-21T13:34:42;19.50;99.90
38500;DHT22;24269;51.894;4.622;2022-07-21T13:37:08;19.30;99.90
38500;DHT22;24269;51.894;4.622;2022-07-21T13:39:37;19.30;99.90
38500;DHT22;24269;51.894;4.622;2022-07-21T13:42:05;19.20;99.90
38500;DHT22;24269;51.894;4.622;2022-07-21T13:44:31;19.10;99.90
38500;DHT22;24269;51.894;4.622;2022-07-21T13:46:57;19.10;99.90
38500;DHT22;24269;51.894;4.622;2022-07-21T13:49:23;19.10;99.90
38500;DHT22;24269;51.894;4.622;2022-07-21T13:51:49;19.10;99.90
38500;DHT22;24269;51.894;4.622;2022-07-21T13:54:15;19.00;99.90
38500;DHT22;24269;51.894;4.622;2022-07-21T13:56:40;18.90;99.90
38500;DHT22;24269;51.894;4.622;2022-07-21T13:59:06;18.90;99.90
38500;DHT22;24269;51.894;4.622;2022-07-21T14:01:32;18.80;99.90
38500;DHT22;24269;51.894;4.622;2022-07-21T14:03:58;18.80;99.90
38500;DHT22;24269;51.894;4.622;2022-07-21T14:06:24;18.80;99.90
38500;DHT22;24269;51.894;4.622;2022-07-21T14:08:49;18.80;99.90
38500;DHT22;24269;51.894;4.622;2022-07-21T14:11:15;18.70;99.90
38500;DHT22;24269;51.894;4.622;2022-07-21T14:13:41;18.60;99.90
38500;DHT22;24269;51.894;4.622;2022-07-21T14:16:08;18.60;99.90
38500;DHT22;24269;51.894;4.622;2022-07-21T14:18:34;18.60;99.90
38500;DHT22;24269;51.894;4.622;2022-07-21T14:20:59;18.60;99.90
38500;DHT22;24269;51.894;4.622;2022-07-21T14:23:25;18.60;99.90
38500;DHT22;24269;51.894;4.622;2022-07-21T14:25:52;18.50;99.90
38500;DHT22;24269;51.894;4.622;2022-07-21T14:28:18;18.60;99.90
38500;DHT22;24269;51.894;4.622;2022-07-21T14:30:44;18.60;99.90
38500;DHT22;24269;51.894;4.622;2022-07-21T14:33:10;18.70;99.90
38500;DHT22;24269;51.894;4.622;2022-07-21T14:35:36;18.70;99.90
38500;DHT22;24269;51.894;4.622;2022-07-21T14:38:01;18.70;99.90
38500;DHT22;24269;51.894;4.622;2022-07-21T14:40:27;18.60;99.90
38500;DHT22;24269;51.894;4.622;2022-07-21T14:42:53;18.60;99.90
38500;DHT22;24269;51.894;4.622;2022-07-21T14:45:20;18.60;99.90
38500;DHT22;24269;51.894;4.622;2022-07-21T14:47:46;18.70;99.90
38500;DHT22;24269;51.894;4.622;2022-07-21T14:50:13;18.70;99.90
38500;DHT22;24269;51.894;4.622;2022-07-21T14:52:40;18.80;99.90
38500;DHT22;24269;51.894;4.622;2022-07-21T14:55:06;18.70;99.90
38500;DHT22;24269;51.894;4.622;2022-07-21T14:57:33;18.70;99.90
38500;DHT22;24269;51.894;4.622;2022-07-21T14:59:59;18.80;99.90
38500;DHT22;24269;51.894;4.622;2022-07-21T15:02:24;18.80;99.90
38500;DHT22;24269;51.894;4.622;2022-07-21T15:04:50;18.90;99.90
38500;DHT22;24269;51.894;4.622;2022-07-21T15:07:16;18.90;99.90
38500;DHT22;24269;51.894;4.622;2022-07-21T15:09:43;18.80;99.90
38500;DHT22;24269;51.894;4.622;2022-07-21T15:12:09;18.90;99.90
38500;DHT22;24269;51.894;4.622;2022-07-21T15:14:36;18.80;99.90
38500;DHT22;24269;51.894;4.622;2022-07-21T15:17:02;18.70;99.90
38500;DHT22;24269;51.894;4.622;2022-07-21T15:19:28;18.70;99.90
38500;DHT22;24269;51.894;4.622;2022-07-21T15:21:53;18.70;99.90
38500;DHT22;24269;51.894;4.622;2022-07-21T15:24:19;18.80;99.90
38500;DHT22;24269;51.894;4.622;2022-07-21T15:26:45;18.80;99.90
38500;DHT22;24269;51.894;4.622;2022-07-21T15:29:11;18.70;99.90
38500;DHT22;24269;51.894;4.622;2022-07-21T15:31:37;18.70;99.90
38500;DHT22;24269;51.894;4.622;2022-07-21T15:34:03;18.70;99.90
38500;DHT22;24269;51.894;4.622;2022-07-21T15:36:28;18.60;99.90
38500;DHT22;24269;51.894;4.622;2022-07-21T15:38:55;18.60;99.90
38500;DHT22;24269;51.894;4.622;2022-07-21T15:41:23;18.60;99.90
38500;DHT22;24269;51.894;4.622;2022-07-21T15:43:48;18.70;99.90
38500;DHT22;24269;51.894;4.622;2022-07-21T15:46:14;18.70;99.90
38500;DHT22;24269;51.894;4.622;2022-07-21T15:48:40;18.80;99.90
38500;DHT22;24269;51.894;4.622;2022-07-21T15:51:06;18.70;99.90
38500;DHT22;24269;51.894;4.622;2022-07-21T15:53:31;18.70;99.90
38500;DHT22;24269;51.894;4.622;2022-07-21T15:55:57;18.60;99.90
38500;DHT22;24269;51.894;4.622;2022-07-21T15:58:23;18.60;99.90
38500;DHT22;24269;51.894;4.622;2022-07-21T16:00:49;18.60;99.90